Tiempo atmosférico en la estación meteorológica de Sardón De Duero, Valladolid (720 m.)



Fecha
DESCASC
Temp. máxima en grados centígrados (hora)
DESCASC
Temp. mínima en grados centígrados (hora)
DESCASC
Temp. media en grados centígrados
DESCASC
Racha de viento máxima en m/sg (hora)
DESCASC
Velocidad máxima media en intervalos de 10 minutos(hora)
DESCASC
Precipitaciones diarias en mm
DESCASC
Precipitaciones de 00:00 a 06:00 en mm
DESCASC
Precipitaciones de 06:00 a 12:00 en mm
DESCASC
Precipitaciones de 12:00 a 18:00 en mm
DESCASC
Precipitaciones de 18:00 a 24:00 en mm
DESCASC
16-06-2019 30.3 (18:00) 4.8 (06:50) 17.5 8.61 (15:10) 4.72 (15:00) 0 0 0 0 0
15-06-2019 25.1 (19:50) 6.3 (07:10) 15.7 6.67 (14:10) 3.33 (00:30) 0 0 0 0 0
14-06-2019 24.6 (14:50) 4.9 (06:30) 14.8 13.61 (18:20) 7.5 (17:00) 0 0 0 0 0
13-06-2019 26.7 (18:20) 2.4 (00:00) 14.6 11.67 (15:00) 6.39 (13:50) 0 0 0 0 0
12-06-2019 23.5 (18:30) 0.8 (00:00) 12.2 9.17 (15:20) 4.44 (15:30) 0 0 0 0 0
11-06-2019 21.1 (18:00) 9.1 (00:00) 15.1 9.44 (18:50) 3.89 (22:40) 0 0 0 0 0
10-06-2019 23.8 (18:20) 6.4 (00:00) 15.1 8.33 (23:10) 3.61 (18:40) 0 0 0 0 0
09-06-2019 25.9 (18:30) 6.1 (00:00) 16 8.89 (21:00) 4.72 (16:40) 0 0 0 0 0
08-06-2019 26.8 (16:50) 1.7 (00:00) 14.2 7.5 (15:10) 3.89 (19:40) 0 0 0 0 0
07-06-2019 19.6 (18:40) 6.3 (00:00) 13 10.56 (04:50) 6.94 (10:10) 2.4 2.4 0 0 0
06-06-2019 24.4 (17:40) 8 (00:00) 16.2 17.5 (19:20) 9.72 (21:00) 2.4 0 0 0 2.4
05-06-2019 19.6 (18:40) 8.6 (00:00) 14.1 10.28 (13:40) 6.39 (19:10) 5.2 4.8 0.4 0 0
04-06-2019 26.3 (17:00) 10.6 (00:00) 18.4 10.56 (16:30) 6.11 (15:10) 0 0 0 0 0
03-06-2019 32.2 (18:00) 10.8 (00:00) 21.5 10.56 (16:20) 6.11 (18:10) 0 0 0 0 0
02-06-2019 33.6 (17:30) 8.7 (00:00) 21.1 12.5 (16:30) 6.67 (16:20) 0 0 0 0 0
01-06-2019 35 (17:50) 7.2 (00:00) 21.1 7.22 (17:10) 3.61 (20:30) 0 0 0 0 0
31-05-2019 34.8 (18:30) 5.4 (00:00) 20.1 6.11 (15:40) 3.33 (15:40) 0 0 0 0 0
30-05-2019 31.8 (17:20) 3.5 (00:00) 17.6 8.61 (18:40) 4.17 (18:20) 0 0 0 0 0
29-05-2019 24.1 (17:10) 2.4 (00:00) 13.3 10.83 (18:00) 5.28 (15:00) 0 0 0 0 0
28-05-2019 24 (17:50) 7.8 (00:00) 15.9 9.72 (00:50) 5 (00:40) 0 0 0 0 0
27-05-2019 27.1 (18:20) 7 (00:00) 17.1 9.44 (23:40) 4.44 (22:10) 0 0 0 0 0
26-05-2019 26.4 (18:00) 3.9 (00:00) 15.1 9.72 (14:30) 4.17 (14:30) 0 0 0 0 0
25-05-2019 22.1 (18:00) 5.8 (00:00) 14 10 (11:30) 4.72 (13:20) 0 0 0 0 0
24-05-2019 21.6 (17:30) 10.2 (00:00) 15.9 11.11 (17:50) 5.83 (16:00) 0 0 0 0 0
23-05-2019 28.7 (17:00) 8.4 (00:00) 18.6 8.61 (19:40) 5.28 (19:40) 0 0 0 0 0
22-05-2019 28 (18:50) 3.7 (00:00) 15.9 6.67 (17:00) 3.89 (17:00) 0 0 0 0 0

Gráficas

Temp. máximas Temp. mínimas Temp. medias Precipitaciones Rachas de viento máximas Velocidades máximas media en intervalos de 10 minutos

Datos horarios

Fecha y hora oficial Temperatura (ºC) Velocidad del viento (km/h) Dirección del viento Racha (km/h) Dirección de racha Precipitación (mm) Presión (hPa) Tendencia (hPa) Humedad (%)
2019-06-20 23:00:00 -- -- -- -- -- -- -- -- --
2019-06-20 22:00:00 -- -- -- -- -- -- -- -- --
2019-06-20 21:00:00 -- -- -- -- -- -- -- -- --
2019-06-20 20:00:00 19 6 Este 33 Este 0 -- -- 70
2019-06-20 19:00:00 23.1 13 Sudeste 28 Norte 0 -- -- 48
2019-06-20 18:00:00 26.9 14 Norte 33 Norte 0 -- -- 36
2019-06-20 17:00:00 26.4 8 Noroeste 21 Oeste 0 -- -- 36
2019-06-20 16:00:00 26.3 7 Oeste 14 Noroeste 0 -- -- 37
2019-06-20 15:00:00 26.7 7 Nordeste 15 Norte 0 -- -- 38
2019-06-20 14:00:00 24.1 6 Norte 14 Norte 0 -- -- 44
2019-06-20 13:00:00 23 5 Norte 17 Norte 0 -- -- 46
2019-06-20 12:00:00 22 5 Norte 11 Nordeste 0 -- -- 49
2019-06-20 11:00:00 20.2 3 Noroeste 10 Norte 0 -- -- 59
2019-06-20 10:00:00 18.4 3 Noroeste 6 Norte 0 -- -- 67
2019-06-20 09:00:00 16 2 Norte 5 Nordeste 0 -- -- 75
2019-06-20 08:00:00 14.2 0 Calma 2 Noroeste 0 -- -- 77
2019-06-20 07:00:00 12.4 0 Calma 4 Este 0 -- -- 81
2019-06-20 06:00:00 11.7 0 Calma 3 Nordeste 0 -- -- 82
2019-06-20 05:00:00 10.5 0 Calma 4 Sur 0 -- -- 85
2019-06-20 04:00:00 9.9 0 Calma 4 Sudeste 0 -- -- 86
2019-06-20 03:00:00 10.9 0 Calma 5 Sur 0 -- -- 83
2019-06-20 02:00:00 11.7 0 Calma 5 Sur 0 -- -- 79
2019-06-20 01:00:00 13 0 Calma 6 Sudeste 0 -- -- 74
2019-06-20 00:00:00 14.1 3 Sudeste 6 Este 0 -- -- 70
2019-06-19 23:00:00 15.5 0 Calma 6 Oeste 0 -- -- 66
2019-06-19 22:00:00 19.9 4 Oeste 22 Oeste 0 -- -- 54
2019-06-19 21:00:00 23 14 Oeste 31 Oeste 0 -- -- 45
2019-06-19 20:00:00 25.2 15 Oeste 36 Oeste 0 -- -- 40
2019-06-19 19:00:00 25 16 Oeste 32 Oeste 0 -- -- 40
2019-06-19 18:00:00 25.9 15 Oeste 33 Oeste 0 -- -- 40
2019-06-19 17:00:00 25.2 13 Oeste 30 Sudoeste 0 -- -- 39
2019-06-19 16:00:00 25.4 18 Oeste 31 Oeste 0 -- -- 39
2019-06-19 15:00:00 24.2 17 Oeste 32 Oeste 0 -- -- 43
2019-06-19 14:00:00 23.4 8 Noroeste 25 Noroeste 0 -- -- 48
2019-06-19 13:00:00 21.6 14 Oeste 23 Oeste 0 -- -- 54
2019-06-19 12:00:00 21.2 14 Sudoeste 24 Sudoeste 0 -- -- 54
2019-06-19 11:00:00 20 12 Oeste 25 Oeste 0 -- -- 61
2019-06-19 10:00:00 18.1 13 Oeste 20 Oeste 0 -- -- 69
2019-06-19 09:00:00 16.5 3 Noroeste 9 Oeste 0 -- -- 74
2019-06-19 08:00:00 13.5 0 Calma 8 Sudoeste 0 -- -- 87
2019-06-19 07:00:00 13.4 2 Sudoeste 5 Sudoeste 0 -- -- 85
2019-06-19 06:00:00 11.3 2 Este 6 Nordeste 0 -- -- 89
2019-06-19 05:00:00 11.9 0 Calma 7 Sur 0 -- -- 85
2019-06-19 04:00:00 12.5 3 Oeste 6 Este 0 -- -- 80
2019-06-19 03:00:00 12.2 4 Sur 6 Sur 0 -- -- 81
2019-06-19 02:00:00 13.6 2 Oeste 8 Sudoeste 0 -- -- 74
2019-06-19 01:00:00 16.7 6 Sudoeste 13 Sudoeste 0 -- -- 65
2019-06-19 00:00:00 19.2 9 Oeste 23 Sudoeste 0 -- -- 56
2019-06-18 23:00:00 20.3 14 Oeste 32 Sudoeste 0 -- -- 51
2019-06-18 22:00:00 21.3 22 Sudoeste 49 Oeste 0 -- -- 46
2019-06-18 21:00:00 24 29 Oeste 51 Oeste 0 -- -- 39
2019-06-18 20:00:00 25.6 29 Oeste 50 Oeste 0 -- -- 33
2019-06-18 19:00:00 26.6 28 Oeste 49 Oeste 0 -- -- 33
2019-06-18 18:00:00 27.9 26 Oeste 52 Oeste 0 -- -- 29
2019-06-18 17:00:00 28.6 27 Oeste 45 Oeste 0 -- -- 25
2019-06-18 16:00:00 29.4 22 Oeste 45 Oeste 0 -- -- 18
2019-06-18 15:00:00 29 23 Oeste 39 Oeste 0 -- -- 18
2019-06-18 14:00:00 29.3 21 Sudoeste 40 Noroeste 0 -- -- 17
2019-06-18 13:00:00 27.9 11 Oeste 31 Sudoeste 0 -- -- 23
2019-06-18 12:00:00 25.6 17 Sudoeste 31 Sudoeste 0 -- -- 25
2019-06-18 11:00:00 23.4 15 Sudoeste 24 Oeste 0 -- -- 32
2019-06-18 10:00:00 21.2 12 Oeste 31 Sudoeste 0 -- -- 37
2019-06-18 09:00:00 19.6 13 Sudoeste 17 Sudoeste 0 -- -- 37
2019-06-18 08:00:00 12.8 3 Sur 5 Sur 0 -- -- 56
2019-06-18 07:00:00 10.6 2 Oeste 8 Sudoeste 0 -- -- 61
2019-06-18 06:00:00 10.6 2 Nordeste 8 Nordeste 0 -- -- 60
2019-06-18 05:00:00 11.6 2 Este 6 Este 0 -- -- 55
2019-06-18 04:00:00 14.6 3 Nordeste 9 Este 0 -- -- 47
2019-06-18 03:00:00 17.8 5 Nordeste 8 Nordeste 0 -- -- 39
2019-06-18 02:00:00 20.6 6 Este 16 Este 0 -- -- 33
2019-06-18 01:00:00 19.7 3 Este 12 Nordeste 0 -- -- 36
2019-06-18 00:00:00 19.7 0 Calma 7 Norte 0 -- -- 35
2019-06-17 23:00:00 20.2 2 Sur 5 Sudoeste 0 -- -- 33
2019-06-17 22:00:00 23.3 4 Oeste 20 Oeste 0 -- -- 28
2019-06-17 21:00:00 25.2 10 Noroeste 31 Oeste 0 -- -- 23
2019-06-17 20:00:00 27.9 19 Oeste 31 Oeste 0 -- -- 21
2019-06-17 19:00:00 29.1 12 Noroeste 37 Oeste 0 -- -- 22
2019-06-17 18:00:00 30.5 18 Sudoeste 32 Sudoeste 0 -- -- 17
2019-06-17 17:00:00 30.8 17 Sudoeste 30 Sudoeste 0 -- -- 18
2019-06-17 16:00:00 30.7 11 Oeste 31 Sur 0 -- -- 20
2019-06-17 15:00:00 29.9 13 Sudoeste 29 Oeste 0 -- -- 22
2019-06-17 14:00:00 28.6 14 Sudoeste 32 Sudoeste 0 -- -- 23
2019-06-17 13:00:00 27.6 13 Sudoeste 22 Sudoeste 0 -- -- 24
2019-06-17 12:00:00 25.8 11 Oeste 19 Oeste 0 -- -- 33
2019-06-17 11:00:00 22.3 4 Noroeste 10 Noroeste 0 -- -- 40
2019-06-17 10:00:00 19.1 0 Calma 5 Noroeste 0 -- -- 42
2019-06-17 09:00:00 13.6 0 Calma 4 Este 0 -- -- 52
2019-06-17 08:00:00 7.6 0 Calma 4 Este 0 -- -- 75
2019-06-17 07:00:00 5.7 0 Calma 6 Nordeste 0 -- -- 77
2019-06-17 06:00:00 5.5 3 Este 5 Este 0 -- -- 73
2019-06-17 05:00:00 7.3 3 Sur 5 Sur 0 -- -- 67
2019-06-17 04:00:00 8 2 Este 6 Sudeste 0 -- -- 62
2019-06-17 03:00:00 8.8 5 Este 9 Nordeste 0 -- -- 58
2019-06-17 02:00:00 10.2 3 Sur 5 Este 0 -- -- 52
2019-06-17 01:00:00 11.9 0 Calma 10 Sudoeste 0 -- -- 47
2019-06-17 00:00:00 13.7 3 Nordeste 8 Sur 0 -- -- 43
2019-06-16 23:00:00 16 0 Calma 7 Este 0 -- -- 37
2019-06-16 22:00:00 20.4 3 Sur 10 Noroeste 0 -- -- 30
2019-06-16 21:00:00 25.5 6 Oeste 15 Oeste 0 -- -- 24
2019-06-16 20:00:00 28.3 10 Oeste 24 Oeste 0 -- -- 19
2019-06-16 19:00:00 28.4 10 Oeste 29 Oeste 0 -- -- 19
2019-06-16 18:00:00 30.3 12 Noroeste 23 Oeste 0 -- -- 18
2019-06-16 17:00:00 28.8 8 Sudoeste 31 Sudoeste 0 -- -- 18
2019-06-16 16:00:00 29.1 11 Noroeste 31 Sudoeste 0 -- -- 20
2019-06-16 15:00:00 28.9 17 Oeste 28 Oeste 0 -- -- 20
2019-06-16 14:00:00 28.1 15 Oeste 28 Sudoeste 0 -- -- 20
2019-06-16 13:00:00 26.7 7 Oeste 28 Sudoeste 0 -- -- 23
2019-06-16 12:00:00 24.7 6 Noroeste 15 Noroeste 0 -- -- 31
2019-06-16 11:00:00 21 5 Nordeste 13 Este 0 -- -- 42
2019-06-16 10:00:00 17.2 6 Nordeste 13 Norte 0 -- -- 51
2019-06-16 09:00:00 13 5 Nordeste 9 Nordeste 0 -- -- 66
2019-06-16 08:00:00 7.7 0 Calma 4 Sudoeste 0 -- -- 83
2019-06-16 07:00:00 4.9 0 Calma 4 Este 0 -- -- 93
2019-06-16 06:00:00 5.1 3 Este 4 Este 0 -- -- 93
2019-06-16 05:00:00 5.5 2 Este 5 Este 0 -- -- 90
2019-06-16 04:00:00 6.8 3 Este 7 Este 0 -- -- 88
2019-06-16 03:00:00 7.3 4 Este 6 Este 0 -- -- 81
2019-06-16 02:00:00 9.1 5 Este 8 Nordeste 0 -- -- 73
2019-06-16 01:00:00 9.5 5 Este 13 Nordeste 0 -- -- 61
2019-06-16 00:00:00 9.9 6 Este 9 Este 0 -- -- 57
2019-06-15 23:00:00 12.2 0 Calma 4 Este 0 -- -- 48
2019-06-15 22:00:00 17.1 0 Calma 6 Oeste 0 -- -- 39
2019-06-15 21:00:00 23.5 4 Noroeste 10 Oeste 0 -- -- 27
2019-06-15 20:00:00 25 5 Noroeste 17 Oeste 0 -- -- 26
2019-06-15 19:00:00 24.8 9 Oeste 17 Noroeste 0 -- -- 26
2019-06-15 18:00:00 24.3 8 Noroeste 18 Noroeste 0 -- -- 27
2019-06-15 17:00:00 23.4 7 Noroeste 23 Oeste 0 -- -- 29
2019-06-15 16:00:00 22.9 7 Norte 21 Noroeste 0 -- -- 30
2019-06-15 15:00:00 22.4 7 Norte 24 Oeste 0 -- -- 32
2019-06-15 14:00:00 20.9 7 Noroeste 19 Sudoeste 0 -- -- 37
2019-06-15 13:00:00 19.8 8 Noroeste 19 Noroeste 0 -- -- 41
2019-06-15 12:00:00 18 7 Oeste 20 Sudoeste 0 -- -- 47
2019-06-15 11:00:00 15.7 8 Oeste 16 Sudoeste 0 -- -- 55
2019-06-15 10:00:00 13.1 8 Oeste 18 Sudoeste 0 -- -- 64
2019-06-15 09:00:00 11 12 Oeste 17 Sudoeste 0 -- -- 72
2019-06-15 08:00:00 8.7 6 Oeste 8 Sudoeste 0 -- -- 79
2019-06-15 07:00:00 6.7 5 Sudoeste 12 Sudoeste 0 -- -- 84
2019-06-15 06:00:00 7.2 7 Sudoeste 13 Sudoeste 0 -- -- 80
2019-06-15 05:00:00 9 6 Sudoeste 15 Sudoeste 0 -- -- 72
2019-06-15 04:00:00 10.3 8 Sudoeste 15 Sudoeste 0 -- -- 67
2019-06-15 03:00:00 11.9 10 Oeste 17 Oeste 0 -- -- 62
2019-06-15 02:00:00 12.4 10 Sudoeste 21 Sudoeste 0 -- -- 61
2019-06-15 01:00:00 13.1 12 Oeste 21 Oeste 0 -- -- 55
2019-06-15 00:00:00 14.6 10 Oeste 19 Oeste 0 -- -- 43
2019-06-14 23:00:00 15.3 9 Oeste 17 Oeste 0 -- -- 41
2019-06-14 22:00:00 16.9 11 Oeste 26 Oeste 0 -- -- 39
2019-06-14 21:00:00 19.1 17 Oeste 32 Oeste 0 -- -- 35
2019-06-14 20:00:00 21.1 20 Oeste 37 Sudoeste 0 -- -- 32
2019-06-14 19:00:00 22.9 22 Oeste 49 Sudoeste 0 -- -- 29
2019-06-14 18:00:00 24 21 Oeste 47 Sudoeste 0 -- -- 23
2019-06-14 17:00:00 24.2 27 Oeste 45 Oeste 0 -- -- 21
2019-06-14 16:00:00 24.1 25 Sudoeste 40 Oeste 0 -- -- 23
2019-06-14 15:00:00 23.9 17 Oeste 40 Oeste 0 -- -- 26
2019-06-14 14:00:00 23.4 19 Sudoeste 34 Oeste 0 -- -- 24
2019-06-14 13:00:00 21.7 17 Oeste 33 Sudoeste 0 -- -- 29
2019-06-14 12:00:00 19.9 13 Oeste 27 Sudoeste 0 -- -- 38
2019-06-14 11:00:00 18 11 Oeste 17 Oeste 0 -- -- 50
2019-06-14 10:00:00 15.3 12 Sudoeste 19 Oeste 0 -- -- 61
2019-06-14 09:00:00 11.4 4 Sur 10 Nordeste 0 -- -- 81
2019-06-14 08:00:00 7.2 2 Este 6 Este 0 -- -- 99
2019-06-14 07:00:00 4.9 0 Calma 6 Sudeste 0 -- -- 98
2019-06-14 06:00:00 5.6 0 Calma 5 Este 0 -- -- 96
2019-06-14 05:00:00 6.8 0 Calma 6 Este 0 -- -- 95
2019-06-14 04:00:00 7.7 4 Este 7 Nordeste 0 -- -- 91
2019-06-14 03:00:00 10 4 Nordeste 18 Nordeste 0 -- -- 86
2019-06-14 02:00:00 11.5 6 Nordeste 21 Nordeste 0 -- -- 77
2019-06-14 01:00:00 11.4 3 Nordeste 8 Sur 0 -- -- 48
2019-06-14 00:00:00 12.9 0 Calma 12 Sudoeste 0 -- -- 44
2019-06-13 23:00:00 17.2 6 Sudoeste 10 Sudoeste 0 -- -- 34
2019-06-13 22:00:00 19.7 3 Oeste 20 Oeste 0 -- -- 31
2019-06-13 21:00:00 23.2 10 Noroeste 29 Oeste 0 -- -- 25
2019-06-13 20:00:00 25.7 17 Oeste 35 Oeste 0 -- -- 12
2019-06-13 19:00:00 26.3 21 Oeste 41 Sudoeste 0 -- -- 15
2019-06-13 18:00:00 26.4 20 Oeste 37 Oeste 0 -- -- 19
2019-06-13 17:00:00 26.5 15 Oeste 38 Oeste 0 -- -- 20
2019-06-13 16:00:00 25 23 Oeste 41 Oeste 0 -- -- 23
2019-06-13 15:00:00 24.9 21 Oeste 42 Oeste 0 -- -- 22
2019-06-13 14:00:00 23.9 18 Sudoeste 37 Sudoeste 0 -- -- 26
2019-06-13 13:00:00 22.1 20 Sudoeste 32 Sudoeste 0 -- -- 29
2019-06-13 12:00:00 20 8 Noroeste 15 Norte 0 -- -- 36
2019-06-13 11:00:00 17.1 5 Noroeste 10 Noroeste 0 -- -- 42
2019-06-13 10:00:00 13 4 Norte 9 Norte 0 -- -- 59
2019-06-13 09:00:00 9.3 3 Noroeste 6 Noroeste 0 -- -- 74
2019-06-13 08:00:00 4.8 2 Este 5 Este 0 -- -- 95
2019-06-13 07:00:00 2.5 5 Este 8 Sudeste 0 -- -- 95
2019-06-13 06:00:00 3.3 0 Calma 5 Sur 0 -- -- 89
2019-06-13 05:00:00 4.5 5 Sudoeste 8 Sudoeste 0 -- -- 82
2019-06-13 04:00:00 4.6 0 Calma 8 Este 0 -- -- 86
2019-06-13 03:00:00 5.9 5 Este 7 Este 0 -- -- 82
2019-06-13 02:00:00 8.6 4 Este 12 Este 0 -- -- 72
2019-06-13 01:00:00 11.1 6 Nordeste 16 Nordeste 0 -- -- 56
2019-06-13 00:00:00 9.9 5 Este 9 Este 0 -- -- 43
2019-06-12 23:00:00 11.6 5 Este 10 Este 0 -- -- 39
2019-06-12 22:00:00 16.2 3 Nordeste 9 Nordeste 0 -- -- 30
2019-06-12 21:00:00 21.5 5 Noroeste 16 Noroeste 0 -- -- 23
2019-06-12 20:00:00 22.9 8 Noroeste 22 Norte 0 -- -- 21
2019-06-12 19:00:00 22.9 12 Oeste 23 Oeste 0 -- -- 21
2019-06-12 18:00:00 23.4 5 Noroeste 24 Noroeste 0 -- -- 20
2019-06-12 17:00:00 22.2 10 Oeste 28 Sur 0 -- -- 21
2019-06-12 16:00:00 20.9 9 Oeste 33 Sudoeste 0 -- -- 26
2019-06-12 15:00:00 20.4 12 Oeste 21 Oeste 0 -- -- 26
2019-06-12 14:00:00 19.2 9 Noroeste 21 Noroeste 0 -- -- 30
2019-06-12 13:00:00 17.7 8 Noroeste 18 Oeste 0 -- -- 31
2019-06-12 12:00:00 15.6 8 Oeste 15 Nordeste 0 -- -- 33
2019-06-12 11:00:00 13.8 4 Sudoeste 10 Noroeste 0 -- -- 44
2019-06-12 10:00:00 11.7 0 Calma 10 Oeste 0 -- -- 54
2019-06-12 09:00:00 8.4 0 Calma 4 Sudoeste 0 -- -- 70
2019-06-12 08:00:00 3.5 2 Norte 4 Sudeste 0 -- -- 93
2019-06-12 07:00:00 1 0 Calma 4 Sur 0 -- -- 95
2019-06-12 06:00:00 0.9 0 Calma 4 Sudoeste 0 -- -- 94
2019-06-12 05:00:00 1.6 0 Calma 3 Nordeste 0 -- -- 91
2019-06-12 04:00:00 2.7 0 Calma 4 Sudeste 0 -- -- 88
2019-06-12 03:00:00 3.6 0 Calma 5 Sudeste 0 -- -- 86
2019-06-12 02:00:00 4.8 3 Este 6 Sudeste 0 -- -- 81
2019-06-12 01:00:00 6.7 3 Este 6 Nordeste 0 -- -- 74
2019-06-12 00:00:00 9.8 5 Este 15 Nordeste 0 -- -- 63
2019-06-11 23:00:00 12 7 Nordeste 32 Norte 0 -- -- 53
2019-06-11 22:00:00 14.2 14 Norte 24 Norte 0 -- -- 43
2019-06-11 21:00:00 17.8 14 Norte 25 Noroeste 0 -- -- 35
2019-06-11 20:00:00 17.8 8 Norte 26 Norte 0 -- -- 31
2019-06-11 19:00:00 19.5 10 Norte 34 Nordeste 0 -- -- 28
2019-06-11 18:00:00 21.1 10 Norte 24 Norte 0 -- -- 27
2019-06-11 17:00:00 20.1 10 Norte 23 Norte 0 -- -- 26
2019-06-11 16:00:00 18 13 Nordeste 31 Norte 0 -- -- 33
2019-06-11 15:00:00 18.7 11 Norte 27 Nordeste 0 -- -- 30
2019-06-11 14:00:00 17.4 9 Norte 24 Noroeste 0 -- -- 33
2019-06-11 13:00:00 16.6 8 Norte 25 Norte 0 -- -- 37
2019-06-11 12:00:00 15.1 9 Norte 24 Norte 0 -- -- 46
2019-06-11 11:00:00 13.4 8 Norte 19 Nordeste 0 -- -- 54
2019-06-11 10:00:00 11.9 6 Nordeste 18 Nordeste 0 -- -- 62
2019-06-11 09:00:00 10.8 7 Nordeste 19 Este 0 -- -- 69
2019-06-11 08:00:00 9.6 7 Nordeste 14 Nordeste 0 -- -- 75
2019-06-11 07:00:00 9.1 5 Nordeste 16 Norte 0 -- -- 78
2019-06-11 06:00:00 9.3 5 Nordeste 17 Nordeste 0 -- -- 78
2019-06-11 05:00:00 9.4 8 Nordeste 19 Nordeste 0 -- -- 77
2019-06-11 04:00:00 9.7 7 Nordeste 17 Nordeste 0 -- -- 72
2019-06-11 03:00:00 10.3 5 Nordeste 26 Este 0 -- -- 70
2019-06-11 02:00:00 10.6 10 Nordeste 24 Nordeste 0 -- -- 71
2019-06-11 01:00:00 11.5 9 Nordeste 21 Nordeste 0 -- -- 70
2019-06-11 00:00:00 13.6 10 Nordeste 30 Nordeste 0 -- -- 61
2019-06-10 23:00:00 17 7 Nordeste 22 Este 0 -- -- 41
2019-06-10 22:00:00 18.5 6 Este 14 Este 0 -- -- 38
2019-06-10 21:00:00 20.1 4 Norte 17 Noroeste 0 -- -- 29
2019-06-10 20:00:00 21.4 10 Oeste 23 Oeste 0 -- -- 26
2019-06-10 19:00:00 23.8 5 Norte 23 Oeste 0 -- -- 24
2019-06-10 18:00:00 23.4 9 Norte 22 Oeste 0 -- -- 27
2019-06-10 17:00:00 22.3 8 Noroeste 24 Noroeste 0 -- -- 28
2019-06-10 16:00:00 22.4 10 Norte 26 Noroeste 0 -- -- 28
2019-06-10 15:00:00 20.2 5 Norte 20 Norte 0 -- -- 35
2019-06-10 14:00:00 19.4 9 Noroeste 23 Oeste 0 -- -- 38
2019-06-10 13:00:00 18.8 10 Oeste 20 Oeste 0 -- -- 38
2019-06-10 12:00:00 16.5 9 Oeste 20 Oeste 0 -- -- 49
2019-06-10 11:00:00 16.1 5 Nordeste 15 Nordeste 0 -- -- 53
2019-06-10 10:00:00 13.4 5 Norte 14 Nordeste 0 -- -- 65
2019-06-10 09:00:00 11.2 6 Nordeste 13 Norte 0 -- -- 74
2019-06-10 08:00:00 10.2 4 Nordeste 12 Norte 0 -- -- 81
2019-06-10 07:00:00 9.5 5 Nordeste 12 Nordeste 0 -- -- 86
2019-06-10 06:00:00 8.3 4 Nordeste 8 Nordeste 0 -- -- 94
2019-06-10 05:00:00 6.4 0 Calma 10 Este 0 -- -- 97
2019-06-10 04:00:00 6.7 4 Este 7 Este 0 -- -- 95
2019-06-10 03:00:00 7.9 3 Este 9 Este 0 -- -- 91
2019-06-10 02:00:00 9.6 5 Nordeste 11 Nordeste 0 -- -- 86
2019-06-10 01:00:00 10.7 5 Nordeste 21 Este 0 -- -- 81
2019-06-10 00:00:00 11.7 10 Nordeste 24 Este 0 -- -- 78
2019-06-09 23:00:00 12.7 12 Nordeste 28 Norte 0 -- -- 73
2019-06-09 22:00:00 15.7 12 Nordeste 27 Noroeste 0 -- -- 67
2019-06-09 21:00:00 20 16 Oeste 32 Oeste 0 -- -- 34
2019-06-09 20:00:00 22.1 12 Oeste 28 Oeste 0 -- -- 28
2019-06-09 19:00:00 24.9 16 Oeste 31 Oeste 0 -- -- 25
2019-06-09 18:00:00 24.9 16 Oeste 29 Oeste 0 -- -- 26
2019-06-09 17:00:00 24.8 15 Oeste 28 Oeste 0 -- -- 28
2019-06-09 16:00:00 24.6 13 Oeste 27 Oeste 0 -- -- 31
2019-06-09 15:00:00 23.4 12 Noroeste 22 Noroeste 0 -- -- 34
2019-06-09 14:00:00 22.6 11 Noroeste 23 Oeste 0 -- -- 39
2019-06-09 13:00:00 21.2 12 Noroeste 21 Noroeste 0 -- -- 43
2019-06-09 12:00:00 19.1 9 Oeste 20 Oeste 0 -- -- 53
2019-06-09 11:00:00 16.5 8 Oeste 19 Oeste 0 -- -- 66
2019-06-09 10:00:00 14.3 7 Oeste 15 Oeste 0 -- -- 75
2019-06-09 09:00:00 11.4 0 Calma 4 Oeste 0 -- -- 87
2019-06-09 08:00:00 7.8 0 Calma 6 Nordeste 0 -- -- 99
2019-06-09 07:00:00 6.2 0 Calma 4 Sudeste 0 -- -- 98
2019-06-09 06:00:00 6.9 0 Calma 3 Sudoeste 0 -- -- 95
2019-06-09 05:00:00 8.2 3 Sudeste 5 Nordeste 0 -- -- 93
2019-06-09 04:00:00 10.4 3 Nordeste 12 Este 0 -- -- 88
2019-06-09 03:00:00 11.5 5 Este 12 Nordeste 0 -- -- 84
2019-06-09 02:00:00 13 4 Nordeste 15 Norte 0 -- -- 79
2019-06-09 01:00:00 15.8 5 Nordeste 15 Nordeste 0 -- -- 66
2019-06-09 00:00:00 17.1 6 Este 12 Este 0 -- -- 55
2019-06-08 23:00:00 17.4 3 Nordeste 9 Este 0 -- -- 53
2019-06-08 22:00:00 19.7 5 Nordeste 18 Nordeste 0 -- -- 45
2019-06-08 21:00:00 21.5 10 Nordeste 25 Norte 0 -- -- 39
2019-06-08 20:00:00 23.6 10 Nordeste 27 Norte 0 -- -- 29
2019-06-08 19:00:00 25.4 7 Norte 17 Sudeste 0 -- -- 27
2019-06-08 18:00:00 26.3 7 Sur 23 Sudeste 0 -- -- 26
2019-06-08 17:00:00 26.3 9 Sudoeste 18 Sur 0 -- -- 24
2019-06-08 16:00:00 26.3 6 Sur 27 Sudoeste 0 -- -- 24
2019-06-08 15:00:00 24.3 12 Sur 22 Sur 0 -- -- 26
2019-06-08 14:00:00 23.7 8 Norte 19 Nordeste 0 -- -- 27
2019-06-08 13:00:00 21.4 8 Norte 20 Nordeste 0 -- -- 32
2019-06-08 12:00:00 20 10 Este 21 Este 0 -- -- 33
2019-06-08 11:00:00 17.7 9 Este 19 Nordeste 0 -- -- 43
2019-06-08 10:00:00 13 6 Nordeste 18 Nordeste 0 -- -- 57
2019-06-08 09:00:00 8.9 5 Nordeste 12 Nordeste 0 -- -- 74
2019-06-08 08:00:00 4.2 4 Este 8 Nordeste 0 -- -- 99
2019-06-08 07:00:00 1.7 3 Este 5 Este 0 -- -- 98
2019-06-08 06:00:00 2.3 2 Este 5 Este 0 -- -- 96
2019-06-08 05:00:00 2.8 3 Este 5 Este 0 -- -- 94
2019-06-08 04:00:00 4 4 Este 5 Este 0 -- -- 90
2019-06-08 03:00:00 6.1 0 Calma 10 Nordeste 0 -- -- 81
2019-06-08 02:00:00 8.2 0 Calma 9 Nordeste 0 -- -- 71
2019-06-08 01:00:00 7.2 0 Calma 8 Norte 0 -- -- 78
2019-06-08 00:00:00 6.3 2 Sudeste 4 Este 0 -- -- 81
2019-06-07 23:00:00 8.2 0 Calma 3 Sur 0 -- -- 73
2019-06-07 22:00:00 12.8 0 Calma 15 Oeste 0 -- -- 51
2019-06-07 21:00:00 17.6 10 Oeste 20 Oeste 0 -- -- 34
2019-06-07 20:00:00 18.2 12 Oeste 27 Oeste 0 -- -- 33
2019-06-07 19:00:00 19.2 15 Oeste 29 Oeste 0 -- -- 30
2019-06-07 18:00:00 18.4 14 Oeste 31 Oeste 0 -- -- 31
2019-06-07 17:00:00 18.4 13 Oeste 33 Sudoeste 0 -- -- 32
2019-06-07 16:00:00 17.3 13 Oeste 28 Noroeste 0 -- -- 40
2019-06-07 15:00:00 16.6 14 Oeste 31 Oeste 0 -- -- 41
2019-06-07 14:00:00 15.8 17 Oeste 32 Oeste 0 -- -- 45
2019-06-07 13:00:00 13.7 14 Noroeste 32 Oeste 0 -- -- 57
2019-06-07 12:00:00 12.8 18 Oeste 35 Oeste 0 -- -- 61
2019-06-07 11:00:00 11.1 20 Oeste 37 Sudoeste 0 -- -- 67
2019-06-07 10:00:00 10.2 21 Oeste 36 Oeste 0 -- -- 74
2019-06-07 09:00:00 9.2 21 Sudoeste 33 Sudoeste 0 -- -- 80
2019-06-07 08:00:00 8.3 18 Sudoeste 33 Sudoeste 0 -- -- 85
2019-06-07 07:00:00 7.9 18 Sudoeste 29 Sudoeste 0 -- -- 87
2019-06-07 06:00:00 7.5 18 Sudoeste 32 Sudoeste 0 -- -- 90
2019-06-07 05:00:00 8.1 19 Sudoeste 38 Sudoeste 0 -- -- 88
2019-06-07 04:00:00 8.4 18 Sudoeste 31 Sudoeste 0 -- -- 89
2019-06-07 03:00:00 8.4 16 Sudoeste 24 Sudoeste 0.2 -- -- 92
2019-06-07 02:00:00 8.7 13 Sudoeste 24 Sudoeste 1.4 -- -- 94
2019-06-07 01:00:00 9.2 15 Oeste 33 Oeste 0.8 -- -- 89
2019-06-07 00:00:00 9.4 17 Sudoeste 54 Sudoeste 2 -- -- 94
2019-06-06 23:00:00 14.8 20 Sudoeste 42 Sudoeste 0.4 -- -- 65
2019-06-06 22:00:00 17.3 21 Sudoeste 46 Sudoeste 0 -- -- 47
2019-06-06 21:00:00 17.9 35 Sudoeste 59 Sudoeste 0 -- -- 49
2019-06-06 20:00:00 21 31 Sudoeste 63 Sudoeste 0 -- -- 34
2019-06-06 19:00:00 23 30 Sudoeste 54 Sudoeste 0 -- -- 30
2019-06-06 18:00:00 24 30 Sudoeste 53 Sudoeste 0 -- -- 27
2019-06-06 17:00:00 23.5 24 Sudoeste 42 Sudoeste 0 -- -- 25
2019-06-06 16:00:00 22.2 20 Sudoeste 40 Oeste 0 -- -- 26
2019-06-06 15:00:00 20.7 21 Sudoeste 42 Sudoeste 0 -- -- 28
2019-06-06 14:00:00 20.4 23 Oeste 40 Sudoeste 0 -- -- 26
2019-06-06 13:00:00 18.5 11 Sudoeste 27 Sudoeste 0 -- -- 36
2019-06-06 12:00:00 16.7 12 Sudoeste 27 Sur 0 -- -- 41
2019-06-06 11:00:00 14.5 6 Sudoeste 18 Sudoeste 0 -- -- 48
2019-06-06 10:00:00 12.8 7 Oeste 13 Noroeste 0 -- -- 58
2019-06-06 09:00:00 10.9 5 Sudoeste 9 Oeste 0 -- -- 64
2019-06-06 08:00:00 8.6 0 Calma 4 Oeste 0 -- -- 82
2019-06-06 07:00:00 8 2 Noroeste 6 Sudoeste 0 -- -- 81
2019-06-06 06:00:00 9.1 5 Sudoeste 9 Sudoeste 0 -- -- 73
2019-06-06 05:00:00 9 6 Sudoeste 8 Sudoeste 0 -- -- 72
2019-06-06 04:00:00 9.4 5 Oeste 8 Oeste 0 -- -- 71
2019-06-06 03:00:00 9.3 3 Sudoeste 8 Sudoeste 0 -- -- 73
2019-06-06 02:00:00 10.1 4 Sudoeste 9 Sudoeste 0 -- -- 66
2019-06-06 01:00:00 9.4 3 Sudoeste 8 Oeste 0 -- -- 69
2019-06-06 00:00:00 12.1 3 Oeste 15 Oeste 0 -- -- 56
2019-06-05 23:00:00 13.1 8 Oeste 21 Oeste 0 -- -- 50
2019-06-05 22:00:00 14.4 14 Oeste 26 Oeste 0 -- -- 45
2019-06-05 21:00:00 15.8 14 Oeste 33 Sudoeste 0 -- -- 35
2019-06-05 20:00:00 16.2 17 Oeste 37 Oeste 0 -- -- 39
2019-06-05 19:00:00 18.4 22 Oeste 35 Oeste 0 -- -- 30
2019-06-05 18:00:00 18 15 Oeste 31 Oeste 0 -- -- 33
2019-06-05 17:00:00 18.9 15 Oeste 30 Oeste 0 -- -- 34
2019-06-05 16:00:00 18.7 15 Oeste 34 Sudoeste 0 -- -- 35
2019-06-05 15:00:00 17.4 18 Oeste 32 Oeste 0 -- -- 41
2019-06-05 14:00:00 16.5 19 Oeste 37 Oeste 0 -- -- 44
2019-06-05 13:00:00 15.8 16 Oeste 36 Oeste 0 -- -- 49
2019-06-05 12:00:00 13.9 16 Oeste 30 Oeste 0 -- -- 61
2019-06-05 11:00:00 12.4 13 Oeste 27 Oeste 0.2 -- -- 72
2019-06-05 10:00:00 11.4 15 Oeste 31 Oeste 0 -- -- 75
2019-06-05 09:00:00 9.1 14 Sudoeste 24 Sudoeste 0 -- -- 87
2019-06-05 08:00:00 8.9 9 Oeste 23 Oeste 0 -- -- 90
2019-06-05 07:00:00 9.2 11 Oeste 19 Oeste 0.2 -- -- 91
2019-06-05 06:00:00 9.6 9 Sudoeste 19 Sudoeste 0 -- -- 97
2019-06-05 05:00:00 9.7 12 Sudoeste 21 Sudoeste 1.6 -- -- 96
2019-06-05 04:00:00 10.1 15 Sudoeste 22 Sudoeste 2.2 -- -- 96
2019-06-05 03:00:00 11.3 13 Oeste 28 Noroeste 1 -- -- 83
2019-06-05 02:00:00 13.9 13 Noroeste 36 Oeste 0 -- -- 58
2019-06-05 01:00:00 16.1 9 Oeste 18 Oeste 0 -- -- 51
2019-06-05 00:00:00 16.4 9 Oeste 21 Noroeste 0 -- -- 52
2019-06-04 23:00:00 17.1 10 Oeste 23 Oeste 0 -- -- 52
2019-06-04 22:00:00 17.9 11 Oeste 25 Oeste 0 -- -- 53
2019-06-04 21:00:00 18.7 16 Oeste 37 Oeste 0 -- -- 53
2019-06-04 20:00:00 20.8 17 Oeste 30 Oeste 0 -- -- 49
2019-06-04 19:00:00 22.9 18 Oeste 33 Oeste 0 -- -- 43
2019-06-04 18:00:00 24.7 15 Oeste 33 Oeste 0 -- -- 35
2019-06-04 17:00:00 26.3 18 Noroeste 38 Oeste 0 -- -- 34
2019-06-04 16:00:00 25.1 15 Oeste 35 Oeste 0 -- -- 35
2019-06-04 15:00:00 24 21 Oeste 35 Oeste 0 -- -- 37
2019-06-04 14:00:00 23.2 17 Oeste 34 Oeste 0 -- -- 38
2019-06-04 13:00:00 22.4 19 Oeste 36 Sudoeste 0 -- -- 42
2019-06-04 12:00:00 20.1 21 Sudoeste 33 Sudoeste 0 -- -- 50
2019-06-04 11:00:00 18.3 18 Sudoeste 31 Sudoeste 0 -- -- 57
2019-06-04 10:00:00 16 10 Oeste 22 Sudoeste 0 -- -- 70
2019-06-04 09:00:00 14.9 13 Oeste 26 Oeste 0 -- -- 76
2019-06-04 08:00:00 13.5 11 Sudoeste 20 Sudoeste 0 -- -- 83
2019-06-04 07:00:00 10.7 0 Calma 4 Oeste 0 -- -- 90
2019-06-04 06:00:00 12 4 Oeste 12 Sudoeste 0 -- -- 87
2019-06-04 05:00:00 14.6 11 Sudoeste 14 Sudoeste 0 -- -- 78
2019-06-04 04:00:00 15.8 10 Sudoeste 17 Oeste 0 -- -- 74
2019-06-04 03:00:00 16.5 8 Sudoeste 12 Sudoeste 0 -- -- 71
2019-06-04 02:00:00 16.5 8 Sudoeste 10 Sudoeste 0 -- -- 66
2019-06-04 01:00:00 17.5 5 Sudoeste 12 Sudoeste 0 -- -- 40
2019-06-04 00:00:00 17.5 6 Sur 12 Sudoeste 0 -- -- 41
2019-06-03 23:00:00 18.1 2 Sudeste 6 Sur 0 -- -- 45
2019-06-03 22:00:00 23.8 4 Sudoeste 17 Oeste 0 -- -- 33
2019-06-03 21:00:00 27.6 14 Oeste 24 Oeste 0 -- -- 28
2019-06-03 20:00:00 29 14 Oeste 31 Oeste 0 -- -- 24
2019-06-03 19:00:00 31.4 18 Oeste 37 Sudoeste 0 -- -- 17
2019-06-03 18:00:00 32.2 16 Oeste 38 Sudoeste 0 -- -- 17
2019-06-03 17:00:00 31.4 21 Sudoeste 38 Sudoeste 0 -- -- 17
2019-06-03 16:00:00 30.6 15 Sudoeste 31 Oeste 0 -- -- 14
2019-06-03 15:00:00 30.4 17 Sudoeste 34 Sudoeste 0 -- -- 15
2019-06-03 14:00:00 28.8 12 Sudoeste 24 Oeste 0 -- -- 20
2019-06-03 13:00:00 27.5 8 Oeste 26 Oeste 0 -- -- 26
2019-06-03 12:00:00 25.9 7 Oeste 18 Noroeste 0 -- -- 31
2019-06-03 11:00:00 23.9 8 Noroeste 15 Noroeste 0 -- -- 33
2019-06-03 10:00:00 20.3 5 Oeste 10 Oeste 0 -- -- 41
2019-06-03 09:00:00 16.8 0 Calma 7 Nordeste 0 -- -- 52
2019-06-03 08:00:00 11.4 0 Calma 4 Sudeste 0 -- -- 71
2019-06-03 07:00:00 11.7 2 Nordeste 6 Sur 0 -- -- 62
2019-06-03 06:00:00 11.7 2 Sudeste 7 Este 0 -- -- 63
2019-06-03 05:00:00 11.2 0 Calma 4 Nordeste 0 -- -- 63
2019-06-03 04:00:00 11 0 Calma 4 Nordeste 0 -- -- 58
2019-06-03 03:00:00 12.6 0 Calma 3 Sur 0 -- -- 52
2019-06-03 02:00:00 12.7 0 Calma 6 Sur 0 -- -- 50
2019-06-03 01:00:00 14.1 3 Nordeste 5 Este 0 -- -- 47
2019-06-03 00:00:00 15.7 0 Calma 4 Sudeste 0 -- -- 41
2019-06-02 23:00:00 18.5 0 Calma 4 Sur 0 -- -- 35
2019-06-02 22:00:00 23.7 2 Sur 15 Noroeste 0 -- -- 28
2019-06-02 21:00:00 27.6 6 Noroeste 25 Noroeste 0 -- -- 24
2019-06-02 20:00:00 30.4 17 Oeste 30 Oeste 0 -- -- 19
2019-06-02 19:00:00 30.8 13 Oeste 35 Oeste 0 -- -- 20
2019-06-02 18:00:00 31.9 18 Oeste 36 Oeste 0 -- -- 19
2019-06-02 17:00:00 32.1 20 Oeste 45 Sudoeste 0 -- -- 18
2019-06-02 16:00:00 32.8 17 Oeste 38 Oeste 0 -- -- 19
2019-06-02 15:00:00 32.8 16 Oeste 35 Oeste 0 -- -- 19
2019-06-02 14:00:00 31.1 13 Oeste 27 Oeste 0 -- -- 21
2019-06-02 13:00:00 31.3 13 Oeste 26 Noroeste 0 -- -- 22
2019-06-02 12:00:00 29.6 14 Oeste 27 Oeste 0 -- -- 25
2019-06-02 11:00:00 26.1 8 Oeste 14 Oeste 0 -- -- 35
2019-06-02 10:00:00 22.1 3 Noroeste 6 Oeste 0 -- -- 41
2019-06-02 09:00:00 16.6 0 Calma 4 Nordeste 0 -- -- 52
2019-06-02 08:00:00 11.1 0 Calma 6 Nordeste 0 -- -- 74
2019-06-02 07:00:00 8.8 3 Este 6 Nordeste 0 -- -- 73
2019-06-02 06:00:00 10.4 2 Sur 6 Este 0 -- -- 64
2019-06-02 05:00:00 10.4 3 Nordeste 5 Este 0 -- -- 64
2019-06-02 04:00:00 11.8 0 Calma 5 Sudoeste 0 -- -- 56
2019-06-02 03:00:00 13.5 3 Sur 11 Noroeste 0 -- -- 50
2019-06-02 02:00:00 13.9 0 Calma 12 Nordeste 0 -- -- 48
2019-06-02 01:00:00 14.5 0 Calma 6 Sur 0 -- -- 44
2019-06-02 00:00:00 15.8 0 Calma 2 Sur 0 -- -- 40
2019-06-01 23:00:00 18.6 0 Calma 5 Este 0 -- -- 35
2019-06-01 22:00:00 23.4 0 Calma 8 Oeste 0 -- -- 29
2019-06-01 21:00:00 30.9 7 Oeste 25 Oeste 0 -- -- 20
2019-06-01 20:00:00 34.1 7 Oeste 15 Oeste 0 -- -- 18
2019-06-01 19:00:00 34.7 7 Noroeste 23 Noroeste 0 -- -- 15
2019-06-01 18:00:00 34.8 8 Noroeste 26 Sudoeste 0 -- -- 15
2019-06-01 17:00:00 34.4 5 Oeste 21 Noroeste 0 -- -- 17
2019-06-01 16:00:00 33.5 10 Noroeste 18 Oeste 0 -- -- 17
2019-06-01 15:00:00 32.8 9 Noroeste 17 Oeste 0 -- -- 17
2019-06-01 14:00:00 32.5 10 Noroeste 18 Oeste 0 -- -- 18
2019-06-01 13:00:00 31.8 6 Norte 18 Norte 0 -- -- 20
2019-06-01 12:00:00 29.2 4 Noroeste 10 Sudoeste 0 -- -- 25
2019-06-01 11:00:00 25.2 4 Nordeste 11 Norte 0 -- -- 35
2019-06-01 10:00:00 20.9 4 Norte 9 Nordeste 0 -- -- 43
2019-06-01 09:00:00 15.9 4 Nordeste 10 Nordeste 0 -- -- 57
2019-06-01 08:00:00 9.6 3 Este 6 Nordeste 0 -- -- 81
2019-06-01 07:00:00 7.2 3 Este 5 Este 0 -- -- 83
2019-06-01 06:00:00 8.1 2 Este 6 Nordeste 0 -- -- 78
2019-06-01 05:00:00 8.4 4 Este 5 Este 0 -- -- 74
2019-06-01 04:00:00 9.7 0 Calma 2 Este 0 -- -- 66
2019-06-01 03:00:00 11.4 0 Calma 3 Nordeste 0 -- -- 57
2019-06-01 02:00:00 12.2 2 Nordeste 8 Este 0 -- -- 56
2019-06-01 01:00:00 13.6 4 Este 10 Este 0 -- -- 48
2019-06-01 00:00:00 16.2 4 Este 8 Nordeste 0 -- -- 43
2019-05-31 23:00:00 19 4 Nordeste 12 Este 0 -- -- 36
2019-05-31 22:00:00 22.8 5 Este 10 Nordeste 0 -- -- 28
2019-05-31 21:00:00 30.3 8 Norte 17 Noroeste 0 -- -- 19
2019-05-31 20:00:00 32.6 8 Norte 16 Norte 0 -- -- 18
2019-05-31 19:00:00 34.6 5 Este 18 Este 0 -- -- 16
2019-05-31 18:00:00 33.4 6 Noroeste 17 Norte 0 -- -- 16
2019-05-31 17:00:00 32.4 5 Sur 20 Nordeste 0 -- -- 15
2019-05-31 16:00:00 31.7 7 Noroeste 22 Noroeste 0 -- -- 17
2019-05-31 15:00:00 31.1 8 Noroeste 21 Este 0 -- -- 18
2019-05-31 14:00:00 30.5 5 Nordeste 15 Nordeste 0 -- -- 19
2019-05-31 13:00:00 29.1 5 Sudeste 20 Este 0 -- -- 21
2019-05-31 12:00:00 27.9 9 Este 21 Este 0 -- -- 24
2019-05-31 11:00:00 24.1 8 Norte 18 Nordeste 0 -- -- 35
2019-05-31 10:00:00 20 6 Nordeste 15 Nordeste 0 -- -- 46
2019-05-31 09:00:00 14.9 2 Norte 9 Nordeste 0 -- -- 59
2019-05-31 08:00:00 7.4 2 Este 5 Nordeste 0 -- -- 89
2019-05-31 07:00:00 5.4 3 Este 5 Este 0 -- -- 89
2019-05-31 06:00:00 6 3 Nordeste 4 Nordeste 0 -- -- 85
2019-05-31 05:00:00 7.9 2 Este 6 Este 0 -- -- 79
2019-05-31 04:00:00 8.8 4 Este 6 Este 0 -- -- 74
2019-05-31 03:00:00 10.5 4 Este 10 Nordeste 0 -- -- 69
2019-05-31 02:00:00 11.6 6 Nordeste 8 Nordeste 0 -- -- 66
2019-05-31 01:00:00 13.5 3 Nordeste 9 Nordeste 0 -- -- 60
2019-05-31 00:00:00 15.8 4 Este 9 Nordeste 0 -- -- 53
2019-05-30 23:00:00 18.4 5 Nordeste 19 Nordeste 0 -- -- 44
2019-05-30 22:00:00 21.2 5 Este 17 Nordeste 0 -- -- 37
2019-05-30 21:00:00 27.4 11 Nordeste 27 Nordeste 0 -- -- 26
2019-05-30 20:00:00 29.7 11 Nordeste 27 Nordeste 0 -- -- 23
2019-05-30 19:00:00 29.7 12 Norte 31 Norte 0 -- -- 22
2019-05-30 18:00:00 31 13 Nordeste 28 Este 0 -- -- 21
2019-05-30 17:00:00 31.3 11 Este 27 Norte 0 -- -- 20
2019-05-30 16:00:00 30.5 12 Nordeste 26 Este 0 -- -- 20
2019-05-30 15:00:00 30 10 Nordeste 26 Norte 0 -- -- 20
2019-05-30 14:00:00 28 11 Nordeste 22 Norte 0 -- -- 22
2019-05-30 13:00:00 27 10 Este 25 Nordeste 0 -- -- 26
2019-05-30 12:00:00 24.5 9 Nordeste 19 Nordeste 0 -- -- 33
2019-05-30 11:00:00 20.8 5 Este 17 Nordeste 0 -- -- 44
2019-05-30 10:00:00 17.1 8 Nordeste 15 Nordeste 0 -- -- 52
2019-05-30 09:00:00 11.9 4 Nordeste 10 Este 0 -- -- 69
2019-05-30 08:00:00 6.3 0 Calma 4 Este 0 -- -- 88
2019-05-30 07:00:00 3.5 4 Este 8 Este 0 -- -- 95
2019-05-30 06:00:00 4.5 0 Calma 7 Nordeste 0 -- -- 91
2019-05-30 05:00:00 5.6 2 Nordeste 8 Sudeste 0 -- -- 87
2019-05-30 04:00:00 7 3 Sudeste 8 Este 0 -- -- 82
2019-05-30 03:00:00 8.7 4 Nordeste 10 Norte 0 -- -- 78
2019-05-30 02:00:00 10.8 4 Nordeste 12 Nordeste 0 -- -- 73
2019-05-30 01:00:00 12.4 4 Este 18 Este 0 -- -- 69
2019-05-30 00:00:00 12.3 4 Este 10 Nordeste 0 -- -- 72
2019-05-29 23:00:00 13.5 5 Nordeste 12 Nordeste 0 -- -- 66
2019-05-29 22:00:00 16.5 7 Nordeste 23 Nordeste 0 -- -- 56
2019-05-29 21:00:00 21.1 10 Nordeste 28 Nordeste 0 -- -- 42
2019-05-29 20:00:00 23.2 10 Nordeste 32 Nordeste 0 -- -- 38
2019-05-29 19:00:00 23.5 14 Nordeste 30 Nordeste 0 -- -- 38
2019-05-29 18:00:00 23.8 17 Nordeste 39 Este 0 -- -- 36
2019-05-29 17:00:00 22.9 16 Nordeste 37 Norte 0 -- -- 37
2019-05-29 16:00:00 22 17 Norte 36 Nordeste 0 -- -- 39
2019-05-29 15:00:00 21.5 19 Nordeste 36 Nordeste 0 -- -- 40
2019-05-29 14:00:00 20.8 15 Nordeste 33 Nordeste 0 -- -- 41
2019-05-29 13:00:00 19.4 13 Nordeste 31 Norte 0 -- -- 45
2019-05-29 12:00:00 18.1 14 Nordeste 34 Nordeste 0 -- -- 48
2019-05-29 11:00:00 16.4 14 Nordeste 30 Nordeste 0 -- -- 50
2019-05-29 10:00:00 14.1 13 Nordeste 25 Este 0 -- -- 57
2019-05-29 09:00:00 11.1 6 Nordeste 14 Nordeste 0 -- -- 70
2019-05-29 08:00:00 5.3 2 Nordeste 6 Este 0 -- -- 97
2019-05-29 07:00:00 2.4 3 Este 5 Este 0 -- -- 96
2019-05-29 06:00:00 3.1 2 Este 6 Este 0 -- -- 93
2019-05-29 05:00:00 4.1 3 Este 6 Este 0 -- -- 91
2019-05-29 04:00:00 4.9 4 Nordeste 8 Este 0 -- -- 85
2019-05-29 03:00:00 7.1 3 Este 16 Este 0 -- -- 77
2019-05-29 02:00:00 8.6 8 Nordeste 24 Este 0 -- -- 71
2019-05-29 01:00:00 9.2 9 Nordeste 21 Este 0 -- -- 65
2019-05-29 00:00:00 10.1 9 Este 27 Nordeste 0 -- -- 61
2019-05-28 23:00:00 11.5 12 Nordeste 27 Nordeste 0 -- -- 55
2019-05-28 22:00:00 13.1 14 Nordeste 31 Nordeste 0 -- -- 47
2019-05-28 21:00:00 17.1 12 Nordeste 33 Nordeste 0 -- -- 40
2019-05-28 20:00:00 20.2 17 Nordeste 31 Nordeste 0 -- -- 38
2019-05-28 19:00:00 22.5 15 Este 30 Este 0 -- -- 35
2019-05-28 18:00:00 23.6 10 Norte 28 Norte 0 -- -- 31
2019-05-28 17:00:00 22.6 11 Norte 32 Nordeste 0 -- -- 32
2019-05-28 16:00:00 21.2 12 Nordeste 29 Norte 0 -- -- 36
2019-05-28 15:00:00 21.2 13 Nordeste 28 Nordeste 0 -- -- 35
2019-05-28 14:00:00 19.6 12 Norte 25 Norte 0 -- -- 36
2019-05-28 13:00:00 18.7 12 Norte 26 Nordeste 0 -- -- 37
2019-05-28 12:00:00 17.6 9 Nordeste 25 Nordeste 0 -- -- 40
2019-05-28 11:00:00 15.3 12 Nordeste 32 Nordeste 0 -- -- 48
2019-05-28 10:00:00 13.2 15 Nordeste 28 Nordeste 0 -- -- 55
2019-05-28 09:00:00 11 15 Nordeste 33 Este 0 -- -- 64
2019-05-28 08:00:00 8.8 10 Este 24 Este 0 -- -- 74
2019-05-28 07:00:00 7.9 12 Nordeste 28 Nordeste 0 -- -- 77
2019-05-28 06:00:00 7.9 9 Nordeste 19 Este 0 -- -- 78
2019-05-28 05:00:00 8.3 8 Nordeste 16 Nordeste 0 -- -- 78
2019-05-28 04:00:00 8.8 10 Nordeste 29 Este 0 -- -- 77
2019-05-28 03:00:00 9.4 10 Nordeste 19 Nordeste 0 -- -- 79
2019-05-28 02:00:00 10.3 8 Nordeste 24 Este 0 -- -- 77
2019-05-28 01:00:00 11.5 14 Nordeste 35 Nordeste 0 -- -- 71
2019-05-28 00:00:00 12.6 15 Nordeste 34 Este 0 -- -- 67
2019-05-27 23:00:00 13.9 13 Nordeste 32 Nordeste 0 -- -- 67
2019-05-27 22:00:00 16 15 Nordeste 32 Nordeste 0 -- -- 62
2019-05-27 21:00:00 21.1 12 Nordeste 29 Nordeste 0 -- -- 47
2019-05-27 20:00:00 24.7 9 Nordeste 23 Este 0 -- -- 39
2019-05-27 19:00:00 26 9 Este 23 Nordeste 0 -- -- 37
2019-05-27 18:00:00 26.6 5 Norte 23 Norte 0 -- -- 35
2019-05-27 17:00:00 24.7 9 Norte 21 Nordeste 0 -- -- 35
2019-05-27 16:00:00 25.5 13 Norte 23 Este 0 -- -- 34
2019-05-27 15:00:00 24.1 10 Norte 26 Noroeste 0 -- -- 37
2019-05-27 14:00:00 24.9 5 Nordeste 24 Noroeste 0 -- -- 36
2019-05-27 13:00:00 24.2 9 Este 26 Este 0 -- -- 37
2019-05-27 12:00:00 22.4 6 Nordeste 18 Norte 0 -- -- 44
2019-05-27 11:00:00 19.1 8 Nordeste 17 Nordeste 0 -- -- 50
2019-05-27 10:00:00 16.6 6 Este 14 Nordeste 0 -- -- 59
2019-05-27 09:00:00 13.1 3 Nordeste 7 Este 0 -- -- 67
2019-05-27 08:00:00 8.1 3 Sur 5 Sudeste 0 -- -- 89
2019-05-27 07:00:00 7.3 0 Calma 8 Nordeste 0 -- -- 92
2019-05-27 06:00:00 8 5 Sudeste 7 Este 0 -- -- 91
2019-05-27 05:00:00 8.5 0 Calma 6 Nordeste 0 -- -- 93
2019-05-27 04:00:00 8.7 5 Este 10 Nordeste 0 -- -- 92
2019-05-27 03:00:00 8.7 3 Este 8 Este 0 -- -- 91
2019-05-27 02:00:00 9.6 4 Este 8 Este 0 -- -- 88
2019-05-27 01:00:00 11.4 4 Sudeste 10 Sudeste 0 -- -- 80
2019-05-27 00:00:00 12.5 2 Sudeste 13 Nordeste 0 -- -- 74
2019-05-26 23:00:00 15.4 6 Nordeste 16 Este 0 -- -- 65
2019-05-26 22:00:00 17.8 9 Nordeste 18 Nordeste 0 -- -- 57
2019-05-26 21:00:00 22.8 12 Nordeste 24 Este 0 -- -- 43
2019-05-26 20:00:00 24.9 12 Nordeste 23 Nordeste 0 -- -- 36
2019-05-26 19:00:00 25.5 13 Nordeste 26 Norte 0 -- -- 35
2019-05-26 18:00:00 26.4 13 Nordeste 27 Este 0 -- -- 35
2019-05-26 17:00:00 25.2 13 Nordeste 28 Nordeste 0 -- -- 36
2019-05-26 16:00:00 23.5 14 Norte 30 Norte 0 -- -- 39
2019-05-26 15:00:00 23.1 12 Nordeste 35 Norte 0 -- -- 41
2019-05-26 14:00:00 21.6 11 Norte 27 Norte 0 -- -- 44
2019-05-26 13:00:00 19.8 10 Nordeste 23 Nordeste 0 -- -- 48
2019-05-26 12:00:00 19.1 10 Nordeste 28 Este 0 -- -- 49
2019-05-26 11:00:00 15.9 13 Nordeste 25 Este 0 -- -- 58
2019-05-26 10:00:00 14 12 Nordeste 26 Este 0 -- -- 65
2019-05-26 09:00:00 11.9 9 Nordeste 27 Nordeste 0 -- -- 73
2019-05-26 08:00:00 6.1 0 Calma 7 Este 0 -- -- 93
2019-05-26 07:00:00 4 0 Calma 6 Sudeste 0 -- -- 96
2019-05-26 06:00:00 4.5 0 Calma 5 Sur 0 -- -- 91
2019-05-26 05:00:00 5.4 0 Calma 4 Sudoeste 0 -- -- 90
2019-05-26 04:00:00 7.1 0 Calma 17 Nordeste 0 -- -- 84
2019-05-26 03:00:00 8.6 9 Nordeste 23 Nordeste 0 -- -- 80
2019-05-26 02:00:00 9.6 9 Nordeste 24 Este 0 -- -- 79
2019-05-26 01:00:00 9.7 6 Este 14 Este 0 -- -- 78
2019-05-26 00:00:00 10 5 Este 17 Este 0 -- -- 74
2019-05-25 23:00:00 11.9 4 Este 17 Este 0 -- -- 66
2019-05-25 22:00:00 13.3 6 Este 23 Nordeste 0 -- -- 61
2019-05-25 21:00:00 17.8 10 Nordeste 26 Este 0 -- -- 47
2019-05-25 20:00:00 20 12 Nordeste 30 Nordeste 0 -- -- 42
2019-05-25 19:00:00 21.3 14 Nordeste 33 Nordeste 0 -- -- 38
2019-05-25 18:00:00 22.1 12 Nordeste 32 Nordeste 0 -- -- 35
2019-05-25 17:00:00 20.9 16 Nordeste 33 Nordeste 0 -- -- 40
2019-05-25 16:00:00 21.5 12 Nordeste 30 Nordeste 0 -- -- 36
2019-05-25 15:00:00 20.1 14 Nordeste 32 Nordeste 0 -- -- 40
2019-05-25 14:00:00 19.5 13 Nordeste 35 Nordeste 0 -- -- 43
2019-05-25 13:00:00 18.5 15 Nordeste 33 Este 0 -- -- 46
2019-05-25 12:00:00 15.2 9 Nordeste 36 Nordeste 0 -- -- 55
2019-05-25 11:00:00 13.9 13 Nordeste 31 Nordeste 0 -- -- 59
2019-05-25 10:00:00 12.2 15 Nordeste 30 Nordeste 0 -- -- 66
2019-05-25 09:00:00 11.5 9 Nordeste 23 Nordeste 0 -- -- 70
2019-05-25 08:00:00 10.2 5 Nordeste 22 Nordeste 0 -- -- 79
2019-05-25 07:00:00 7.4 5 Nordeste 14 Este 0 -- -- 95
2019-05-25 06:00:00 6.1 3 Este 12 Nordeste 0 -- -- 92
2019-05-25 05:00:00 8.4 7 Nordeste 20 Nordeste 0 -- -- 84
2019-05-25 04:00:00 8.3 8 Este 14 Nordeste 0 -- -- 87
2019-05-25 03:00:00 10 9 Nordeste 20 Nordeste 0 -- -- 79
2019-05-25 02:00:00 10.5 6 Nordeste 17 Nordeste 0 -- -- 78
2019-05-25 01:00:00 10.3 4 Nordeste 17 Nordeste 0 -- -- 79
2019-05-25 00:00:00 10.3 9 Nordeste 24 Nordeste 0 -- -- 78
2019-05-24 23:00:00 10.6 8 Nordeste 23 Nordeste 0 -- -- 75
2019-05-24 22:00:00 12 12 Nordeste 36 Nordeste 0 -- -- 68
2019-05-24 21:00:00 15.6 13 Nordeste 31 Este 0 -- -- 53
2019-05-24 20:00:00 18.7 13 Nordeste 34 Nordeste 0 -- -- 41
2019-05-24 19:00:00 20.4 15 Nordeste 37 Nordeste 0 -- -- 37
2019-05-24 18:00:00 21 15 Nordeste 40 Nordeste 0 -- -- 36
2019-05-24 17:00:00 19.9 18 Norte 38 Nordeste 0 -- -- 39
2019-05-24 16:00:00 19.9 21 Nordeste 37 Nordeste 0 -- -- 37
2019-05-24 15:00:00 20.2 17 Nordeste 32 Norte 0 -- -- 39
2019-05-24 14:00:00 20.5 13 Nordeste 33 Nordeste 0 -- -- 41
2019-05-24 13:00:00 18.1 17 Nordeste 33 Nordeste 0 -- -- 47
2019-05-24 12:00:00 18.3 10 Nordeste 29 Norte 0 -- -- 48
2019-05-24 11:00:00 16.2 10 Nordeste 27 Nordeste 0 -- -- 56
2019-05-24 10:00:00 13 12 Nordeste 33 Nordeste 0 -- -- 68
2019-05-24 09:00:00 11.9 14 Nordeste 27 Nordeste 0 -- -- 74
2019-05-24 08:00:00 11.5 9 Nordeste 26 Nordeste 0 -- -- 79
2019-05-24 07:00:00 11.1 8 Nordeste 21 Nordeste 0 -- -- 81
2019-05-24 06:00:00 11.7 8 Nordeste 22 Nordeste 0 -- -- 77
2019-05-24 05:00:00 11.1 8 Este 21 Este 0 -- -- 80
2019-05-24 04:00:00 11.4 9 Este 24 Este 0 -- -- 79
2019-05-24 03:00:00 11.7 9 Este 26 Nordeste 0 -- -- 81
2019-05-24 02:00:00 12.3 10 Nordeste 24 Nordeste 0 -- -- 80
2019-05-24 01:00:00 13 8 Este 27 Este 0 -- -- 81
2019-05-24 00:00:00 13.7 12 Nordeste 24 Este 0 -- -- 79
2019-05-23 23:00:00 16.3 9 Nordeste 21 Nordeste 0 -- -- 73
2019-05-23 22:00:00 21.2 15 Oeste 31 Oeste 0 -- -- 38
2019-05-23 21:00:00 23.5 13 Oeste 24 Oeste 0 -- -- 30
2019-05-23 20:00:00 26.2 16 Oeste 31 Oeste 0 -- -- 30
2019-05-23 19:00:00 26.2 10 Noroeste 23 Nordeste 0 -- -- 32
2019-05-23 18:00:00 28 9 Noroeste 26 Oeste 0 -- -- 31
2019-05-23 17:00:00 28.7 13 Oeste 29 Noroeste 0 -- -- 28
2019-05-23 16:00:00 27.3 14 Noroeste 22 Noroeste 0 -- -- 30
2019-05-23 15:00:00 26.9 6 Oeste 22 Oeste 0 -- -- 34
2019-05-23 14:00:00 26 6 Sur 17 Noroeste 0 -- -- 38
2019-05-23 13:00:00 22.6 8 Oeste 20 Noroeste 0 -- -- 48
2019-05-23 12:00:00 21.4 6 Noroeste 17 Sudoeste 0 -- -- 51
2019-05-23 11:00:00 18.6 7 Oeste 15 Oeste 0 -- -- 58
2019-05-23 10:00:00 16.7 0 Calma 5 Oeste 0 -- -- 59
2019-05-23 09:00:00 13.8 0 Calma 4 Norte 0 -- -- 61
2019-05-23 08:00:00 10.4 0 Calma 4 Nordeste 0 -- -- 78
2019-05-23 07:00:00 8.5 0 Calma 3 Este 0 -- -- 82
2019-05-23 06:00:00 9.1 3 Este 5 Nordeste 0 -- -- 78
2019-05-23 05:00:00 8.9 2 Este 5 Este 0 -- -- 77
2019-05-23 04:00:00 10.3 3 Nordeste 7 Sudoeste 0 -- -- 69
2019-05-23 03:00:00 9.7 0 Calma 4 Nordeste 0 -- -- 69
2019-05-23 02:00:00 9.7 0 Calma 3 Este 0 -- -- 68
2019-05-23 01:00:00 10.9 0 Calma 6 Este 0 -- -- 59
2019-05-23 00:00:00 11.9 4 Este 8 Nordeste 0 -- -- 58
2019-05-22 23:00:00 13.9 0 Calma 4 Este 0 -- -- 49
2019-05-22 22:00:00 17.3 0 Calma 6 Noroeste 0 -- -- 41
2019-05-22 21:00:00 25.6 3 Noroeste 15 Oeste 0 -- -- 27
2019-05-22 20:00:00 27.3 7 Noroeste 19 Oeste 0 -- -- 23
2019-05-22 19:00:00 27.1 11 Oeste 23 Oeste 0 -- -- 23
2019-05-22 18:00:00 27.2 9 Noroeste 21 Oeste 0 -- -- 24
2019-05-22 17:00:00 27.1 14 Oeste 24 Oeste 0 -- -- 24
2019-05-22 16:00:00 26.7 10 Noroeste 23 Oeste 0 -- -- 25
2019-05-22 15:00:00 26.7 12 Oeste 22 Oeste 0 -- -- 25
2019-05-22 14:00:00 26 6 Oeste 18 Oeste 0 -- -- 26
2019-05-22 13:00:00 24.4 7 Oeste 17 Oeste 0 -- -- 27
2019-05-22 12:00:00 22.3 7 Norte 13 Norte 0 -- -- 37
2019-05-22 11:00:00 18.8 5 Norte 12 Norte 0 -- -- 47
2019-05-22 10:00:00 15 5 Norte 13 Este 0 -- -- 58
2019-05-22 09:00:00 11 5 Nordeste 10 Este 0 -- -- 72
2019-05-22 08:00:00 5.9 2 Norte 4 Norte 0 -- -- 94
2019-05-22 07:00:00 4.2 0 Calma 5 Este 0 -- -- 97
2019-05-22 06:00:00 3.9 3 Este 5 Este 0 -- -- 95
2019-05-22 05:00:00 4.9 2 Este 4 Este 0 -- -- 93
2019-05-22 04:00:00 5.2 3 Este 5 Este 0 -- -- 89
2019-05-22 03:00:00 6.9 2 Nordeste 5 Sudeste 0 -- -- 82
2019-05-22 02:00:00 8.9 0 Calma 9 Este 0 -- -- 75
2019-05-22 01:00:00 10.1 4 Este 12 Nordeste 0 -- -- 68
2019-05-22 00:00:00 12.4 5 Nordeste 12 Norte 0 -- -- 59